Time;durP1;ratioP1;P1;durP2;ratioP2;P2;SDS_P1;SDS_P2;PMS_P1;PMS_P2;Temp;Humidity;BMP_temperature;BMP_pressure;BME280_temperature;BME280_humidity;BME280_pressure;Samples;Min_cycle;Max_cycle;Signal;HPM_P1;HPM_P2
2021/08/11 00:00:08;;;;;;;6.25;4.75;;;;;;;15.87;71.06836;95509.45;;;;
2021/08/11 00:01:09;;;;;;;6.25;4.75;;;;;;;15.87;71.06836;95509.45;;;;
2021/08/11 00:02:10;;;;;;;6.25;4.75;;;;;;;15.87;71.06836;95509.45;;;;
2021/08/11 00:03:10;;;;;;;6.25;4.75;;;;;;;15.87;71.06836;95509.45;;;;
2021/08/11 00:04:10;;;;;;;6.250001;4.75;;;;;;;15.99;71.26172;95509.67;;;;
2021/08/11 00:05:11;;;;;;;6.250001;4.75;;;;;;;15.99;71.26172;95509.67;;;;
2021/08/11 00:06:12;;;;;;;6.250001;4.75;;;;;;;15.99;71.26172;95509.67;;;;
2021/08/11 00:07:13;;;;;;;6.250001;4.75;;;;;;;15.99;71.26172;95509.67;;;;
2021/08/11 00:08:13;;;;;;;6.250001;4.75;;;;;;;15.99;71.26172;95509.67;;;;
2021/08/11 00:09:14;;;;;;;6.250001;4.75;;;;;;;15.99;71.26172;95509.67;;;;
2021/08/11 00:10:14;;;;;;;6.250001;4.75;;;;;;;15.99;71.26172;95509.67;;;;
2021/08/11 00:11:15;;;;;;;6.250001;4.75;;;;;;;15.99;71.26172;95509.67;;;;
2021/08/11 00:12:15;;;;;;;6.250001;4.75;;;;;;;15.99;71.26172;95509.67;;;;
2021/08/11 00:13:16;;;;;;;6.250001;4.75;;;;;;;15.99;71.26172;95509.67;;;;
2021/08/11 00:14:16;;;;;;;7.950001;5.349999;;;;;;;15.87;71.71875;95525.78;;;;
2021/08/11 00:15:17;;;;;;;7.950001;5.349999;;;;;;;15.87;71.71875;95525.78;;;;
2021/08/11 00:16:18;;;;;;;7.950001;5.349999;;;;;;;15.87;71.71875;95525.78;;;;
2021/08/11 00:17:18;;;;;;;7.950001;5.349999;;;;;;;15.87;71.71875;95525.78;;;;
2021/08/11 00:18:19;;;;;;;7.950001;5.349999;;;;;;;15.87;71.71875;95525.78;;;;
2021/08/11 00:19:19;;;;;;;7.950001;5.349999;;;;;;;15.87;71.71875;95525.78;;;;
2021/08/11 00:20:22;;;;;;;7.950001;5.349999;;;;;;;15.87;71.71875;95525.78;;;;
2021/08/11 00:21:22;;;;;;;7.950001;5.349999;;;;;;;15.87;71.71875;95525.78;;;;
2021/08/11 00:22:23;;;;;;;7.950001;5.349999;;;;;;;15.87;71.71875;95525.78;;;;
2021/08/11 00:23:25;;;;;;;7.950001;5.349999;;;;;;;15.87;71.71875;95525.78;;;;
2021/08/11 00:24:25;;;;;;;7.950001;5.349999;;;;;;;15.87;71.71875;95525.78;;;;
2021/08/11 00:25:26;;;;;;;6.5;5.1;;;;;;;15.87;72.25;95553.02;;;;
2021/08/11 00:26:26;;;;;;;6.5;5.1;;;;;;;15.87;72.25;95553.02;;;;
2021/08/11 00:27:27;;;;;;;6.5;5.1;;;;;;;15.87;72.25;95553.02;;;;
2021/08/11 00:28:27;;;;;;;6.5;5.1;;;;;;;15.87;72.25;95553.02;;;;
2021/08/11 00:29:28;;;;;;;6.5;5.1;;;;;;;15.87;72.25;95553.02;;;;
2021/08/11 00:30:29;;;;;;;6.5;5.1;;;;;;;15.87;72.25;95553.02;;;;
2021/08/11 00:31:30;;;;;;;6.5;5.1;;;;;;;15.87;72.25;95553.02;;;;
2021/08/11 00:32:31;;;;;;;6.5;5.1;;;;;;;15.87;72.25;95553.02;;;;
2021/08/11 00:33:31;;;;;;;6.5;5.1;;;;;;;15.87;72.25;95553.02;;;;
2021/08/11 00:34:32;;;;;;;6.5;5.1;;;;;;;15.87;72.25;95553.02;;;;
2021/08/11 00:35:33;;;;;;;7.099999;4.75;;;;;;;16.13;72.3457;95545.83;;;;
2021/08/11 00:36:33;;;;;;;7.099999;4.75;;;;;;;16.13;72.3457;95545.83;;;;
2021/08/11 00:37:34;;;;;;;7.099999;4.75;;;;;;;16.13;72.3457;95545.83;;;;
2021/08/11 00:38:34;;;;;;;7.099999;4.75;;;;;;;16.13;72.3457;95545.83;;;;
2021/08/11 00:39:35;;;;;;;7.099999;4.75;;;;;;;16.13;72.3457;95545.83;;;;
2021/08/11 00:40:35;;;;;;;7.099999;4.75;;;;;;;16.13;72.3457;95545.83;;;;
2021/08/11 00:41:36;;;;;;;7.099999;4.75;;;;;;;16.13;72.3457;95545.83;;;;
2021/08/11 00:42:38;;;;;;;7.099999;4.75;;;;;;;16.13;72.3457;95545.83;;;;
2021/08/11 00:43:38;;;;;;;7.099999;4.75;;;;;;;16.13;72.3457;95545.83;;;;
2021/08/11 00:44:39;;;;;;;7.099999;4.75;;;;;;;16.13;72.3457;95545.83;;;;
2021/08/11 00:45:39;;;;;;;7.099999;4.75;;;;;;;16.13;72.3457;95545.83;;;;
2021/08/11 00:46:40;;;;;;;5.95;4.799999;;;;;;;16.18;72.55957;95531.28;;;;
2021/08/11 00:47:41;;;;;;;5.95;4.799999;;;;;;;16.18;72.55957;95531.28;;;;
2021/08/11 00:48:42;;;;;;;5.95;4.799999;;;;;;;16.18;72.55957;95531.28;;;;
2021/08/11 00:49:43;;;;;;;5.95;4.799999;;;;;;;16.18;72.55957;95531.28;;;;
2021/08/11 00:50:44;;;;;;;5.95;4.799999;;;;;;;16.18;72.55957;95531.28;;;;
2021/08/11 00:51:44;;;;;;;5.95;4.799999;;;;;;;16.18;72.55957;95531.28;;;;
2021/08/11 00:52:47;;;;;;;5.95;4.799999;;;;;;;16.18;72.55957;95531.28;;;;
2021/08/11 00:53:48;;;;;;;5.95;4.799999;;;;;;;16.18;72.55957;95531.28;;;;
2021/08/11 00:54:50;;;;;;;5.95;4.799999;;;;;;;16.18;72.55957;95531.28;;;;
2021/08/11 00:55:52;;;;;;;5.95;4.799999;;;;;;;16.18;72.55957;95531.28;;;;
2021/08/11 00:56:54;;;;;;;7;5.349999;;;;;;;15.98;73.04883;95522.45;;;;
2021/08/11 00:57:56;;;;;;;7;5.349999;;;;;;;15.98;73.04883;95522.45;;;;
2021/08/11 00:58:56;;;;;;;7;5.349999;;;;;;;15.98;73.04883;95522.45;;;;
2021/08/11 00:59:58;;;;;;;7;5.349999;;;;;;;15.98;73.04883;95522.45;;;;
2021/08/11 01:01:00;;;;;;;7;5.349999;;;;;;;15.98;73.04883;95522.45;;;;
2021/08/11 01:02:02;;;;;;;7;5.349999;;;;;;;15.98;73.04883;95522.45;;;;
2021/08/11 01:03:03;;;;;;;7;5.349999;;;;;;;15.98;73.04883;95522.45;;;;
2021/08/11 01:04:08;;;;;;;7;5.349999;;;;;;;15.98;73.04883;95522.45;;;;
2021/08/11 01:05:10;;;;;;;7;5.349999;;;;;;;15.98;73.04883;95522.45;;;;
2021/08/11 01:06:12;;;;;;;7;5.349999;;;;;;;15.98;73.04883;95522.45;;;;
2021/08/11 01:07:14;;;;;;;7;5.349999;;;;;;;15.98;73.04883;95522.45;;;;
2021/08/11 01:08:16;;;;;;;6.2;4.95;;;;;;;15.96;73.69434;95548.3;;;;
2021/08/11 01:09:18;;;;;;;6.2;4.95;;;;;;;15.96;73.69434;95548.3;;;;
2021/08/11 01:10:19;;;;;;;6.2;4.95;;;;;;;15.96;73.69434;95548.3;;;;
2021/08/11 01:11:21;;;;;;;6.2;4.95;;;;;;;15.96;73.69434;95548.3;;;;
2021/08/11 01:12:22;;;;;;;6.2;4.95;;;;;;;15.96;73.69434;95548.3;;;;
2021/08/11 01:13:25;;;;;;;6.2;4.95;;;;;;;15.96;73.69434;95548.3;;;;
2021/08/11 01:14:25;;;;;;;6.2;4.95;;;;;;;15.96;73.69434;95548.3;;;;
2021/08/11 01:15:26;;;;;;;6.2;4.95;;;;;;;15.96;73.69434;95548.3;;;;
2021/08/11 01:16:26;;;;;;;6.2;4.95;;;;;;;15.96;73.69434;95548.3;;;;
2021/08/11 01:17:27;;;;;;;6.2;4.95;;;;;;;15.96;73.69434;95548.3;;;;
2021/08/11 01:18:29;;;;;;;7.200001;5.400001;;;;;;;16.09;73.87891;95541.99;;;;
2021/08/11 01:19:30;;;;;;;7.200001;5.400001;;;;;;;16.09;73.87891;95541.99;;;;
2021/08/11 01:20:31;;;;;;;7.200001;5.400001;;;;;;;16.09;73.87891;95541.99;;;;
2021/08/11 01:21:36;;;;;;;7.200001;5.400001;;;;;;;16.09;73.87891;95541.99;;;;
2021/08/11 01:22:41;;;;;;;7.200001;5.400001;;;;;;;16.09;73.87891;95541.99;;;;
2021/08/11 01:23:47;;;;;;;7.200001;5.400001;;;;;;;16.09;73.87891;95541.99;;;;
2021/08/11 01:24:55;;;;;;;7.200001;5.400001;;;;;;;16.09;73.87891;95541.99;;;;
2021/08/11 01:26:02;;;;;;;7.200001;5.400001;;;;;;;16.09;73.87891;95541.99;;;;
2021/08/11 01:27:09;;;;;;;7.200001;5.400001;;;;;;;16.09;73.87891;95541.99;;;;
2021/08/11 01:28:26;;;;;;;7.200001;5.400001;;;;;;;16.09;73.87891;95541.99;;;;
2021/08/11 01:30:05;;;;;;;7.299999;5.4;;;;;;;16;74.33105;95548.89;;;;
2021/08/11 01:31:14;;;;;;;7.299999;5.4;;;;;;;16;74.33105;95548.89;;;;
2021/08/11 01:32:16;;;;;;;7.299999;5.4;;;;;;;16;74.33105;95548.89;;;;
2021/08/11 01:33:25;;;;;;;7.299999;5.4;;;;;;;16;74.33105;95548.89;;;;
2021/08/11 01:34:48;;;;;;;7.299999;5.4;;;;;;;16;74.33105;95548.89;;;;
2021/08/11 01:35:51;;;;;;;7.299999;5.4;;;;;;;16;74.33105;95548.89;;;;
2021/08/11 01:36:58;;;;;;;7.299999;5.4;;;;;;;16;74.33105;95548.89;;;;
2021/08/11 01:38:03;;;;;;;7.299999;5.4;;;;;;;16;74.33105;95548.89;;;;
2021/08/11 01:39:10;;;;;;;7.299999;5.4;;;;;;;16;74.33105;95548.89;;;;
2021/08/11 01:40:19;;;;;;;6.649999;5.55;;;;;;;15.85;74.84668;95541.15;;;;
2021/08/11 01:41:32;;;;;;;6.649999;5.55;;;;;;;15.85;74.84668;95541.15;;;;
2021/08/11 01:42:36;;;;;;;6.649999;5.55;;;;;;;15.85;74.84668;95541.15;;;;
2021/08/11 01:43:40;;;;;;;6.649999;5.55;;;;;;;15.85;74.84668;95541.15;;;;
2021/08/11 01:44:44;;;;;;;6.649999;5.55;;;;;;;15.85;74.84668;95541.15;;;;
2021/08/11 01:45:52;;;;;;;6.649999;5.55;;;;;;;15.85;74.84668;95541.15;;;;
2021/08/11 01:46:55;;;;;;;6.649999;5.55;;;;;;;15.85;74.84668;95541.15;;;;
2021/08/11 01:47:56;;;;;;;6.649999;5.55;;;;;;;15.85;74.84668;95541.15;;;;
2021/08/11 01:49:00;;;;;;;6.649999;5.55;;;;;;;15.85;74.84668;95541.15;;;;
2021/08/11 01:50:01;;;;;;;6.649999;5.55;;;;;;;15.85;74.84668;95541.15;;;;
2021/08/11 01:51:03;;;;;;;5.8;5.199999;;;;;;;15.83;75.49316;95554.61;;;;
2021/08/11 01:52:05;;;;;;;5.8;5.199999;;;;;;;15.83;75.49316;95554.61;;;;
2021/08/11 01:53:06;;;;;;;5.8;5.199999;;;;;;;15.83;75.49316;95554.61;;;;
2021/08/11 01:54:11;;;;;;;5.8;5.199999;;;;;;;15.83;75.49316;95554.61;;;;
2021/08/11 01:55:13;;;;;;;5.8;5.199999;;;;;;;15.83;75.49316;95554.61;;;;
2021/08/11 01:56:14;;;;;;;5.8;5.199999;;;;;;;15.83;75.49316;95554.61;;;;
2021/08/11 01:57:17;;;;;;;5.8;5.199999;;;;;;;15.83;75.49316;95554.61;;;;
2021/08/11 01:58:18;;;;;;;5.8;5.199999;;;;;;;15.83;75.49316;95554.61;;;;
2021/08/11 01:59:21;;;;;;;5.8;5.199999;;;;;;;15.83;75.49316;95554.61;;;;
2021/08/11 02:00:22;;;;;;;5.8;5.199999;;;;;;;15.83;75.49316;95554.61;;;;
2021/08/11 02:01:24;;;;;;;6.25;5.349999;;;;;;;15.88;75.83691;95543.78;;;;
2021/08/11 02:02:24;;;;;;;6.25;5.349999;;;;;;;15.88;75.83691;95543.78;;;;
2021/08/11 02:03:25;;;;;;;6.25;5.349999;;;;;;;15.88;75.83691;95543.78;;;;
2021/08/11 02:04:26;;;;;;;6.25;5.349999;;;;;;;15.88;75.83691;95543.78;;;;
2021/08/11 02:05:30;;;;;;;6.25;5.349999;;;;;;;15.88;75.83691;95543.78;;;;
2021/08/11 02:06:31;;;;;;;6.25;5.349999;;;;;;;15.88;75.83691;95543.78;;;;
2021/08/11 02:07:32;;;;;;;6.25;5.349999;;;;;;;15.88;75.83691;95543.78;;;;
2021/08/11 02:08:33;;;;;;;6.25;5.349999;;;;;;;15.88;75.83691;95543.78;;;;
2021/08/11 02:09:35;;;;;;;6.25;5.349999;;;;;;;15.88;75.83691;95543.78;;;;
2021/08/11 02:10:37;;;;;;;6.25;5.349999;;;;;;;15.88;75.83691;95543.78;;;;
2021/08/11 02:11:40;;;;;;;6.800001;5.400001;;;;;;;15.76;76.19531;95540;;;;
2021/08/11 02:12:41;;;;;;;6.800001;5.400001;;;;;;;15.76;76.19531;95540;;;;
2021/08/11 02:13:41;;;;;;;6.800001;5.400001;;;;;;;15.76;76.19531;95540;;;;
2021/08/11 02:14:42;;;;;;;6.800001;5.400001;;;;;;;15.76;76.19531;95540;;;;
2021/08/11 02:15:43;;;;;;;6.800001;5.400001;;;;;;;15.76;76.19531;95540;;;;
2021/08/11 02:16:47;;;;;;;6.800001;5.400001;;;;;;;15.76;76.19531;95540;;;;
2021/08/11 02:17:47;;;;;;;6.800001;5.400001;;;;;;;15.76;76.19531;95540;;;;
2021/08/11 02:18:48;;;;;;;6.800001;5.400001;;;;;;;15.76;76.19531;95540;;;;
2021/08/11 02:19:48;;;;;;;6.800001;5.400001;;;;;;;15.76;76.19531;95540;;;;
2021/08/11 02:20:50;;;;;;;6.800001;5.400001;;;;;;;15.76;76.19531;95540;;;;
2021/08/11 02:21:50;;;;;;;6.800001;5.400001;;;;;;;15.76;76.19531;95540;;;;
2021/08/11 02:22:51;;;;;;;6.849999;5.5;;;;;;;15.6;76.80762;95532.26;;;;
2021/08/11 02:23:51;;;;;;;6.849999;5.5;;;;;;;15.6;76.80762;95532.26;;;;
2021/08/11 02:24:52;;;;;;;6.849999;5.5;;;;;;;15.6;76.80762;95532.26;;;;
2021/08/11 02:25:53;;;;;;;6.849999;5.5;;;;;;;15.6;76.80762;95532.26;;;;
2021/08/11 02:27:01;;;;;;;6.849999;5.5;;;;;;;15.6;76.80762;95532.26;;;;
2021/08/11 02:28:07;;;;;;;6.849999;5.5;;;;;;;15.6;76.80762;95532.26;;;;
2021/08/11 02:29:14;;;;;;;6.849999;5.5;;;;;;;15.6;76.80762;95532.26;;;;
2021/08/11 02:30:25;;;;;;;6.849999;5.5;;;;;;;15.6;76.80762;95532.26;;;;
2021/08/11 02:31:35;;;;;;;6.849999;5.5;;;;;;;15.6;76.80762;95532.26;;;;
2021/08/11 02:32:44;;;;;;;6.849999;5.5;;;;;;;15.6;76.80762;95532.26;;;;
2021/08/11 02:33:51;;;;;;;6.15;5.5;;;;;;;15.47;77.34668;95550.81;;;;
2021/08/11 02:35:00;;;;;;;6.15;5.5;;;;;;;15.47;77.34668;95550.81;;;;
2021/08/11 02:36:06;;;;;;;6.15;5.5;;;;;;;15.47;77.34668;95550.81;;;;
2021/08/11 02:37:12;;;;;;;6.15;5.5;;;;;;;15.47;77.34668;95550.81;;;;
2021/08/11 02:38:17;;;;;;;6.15;5.5;;;;;;;15.47;77.34668;95550.81;;;;
2021/08/11 02:39:26;;;;;;;6.15;5.5;;;;;;;15.47;77.34668;95550.81;;;;
2021/08/11 02:40:35;;;;;;;6.15;5.5;;;;;;;15.47;77.34668;95550.81;;;;
2021/08/11 02:41:38;;;;;;;6.15;5.5;;;;;;;15.47;77.34668;95550.81;;;;
2021/08/11 02:42:46;;;;;;;6.15;5.5;;;;;;;15.47;77.34668;95550.81;;;;
2021/08/11 02:43:56;;;;;;;8.199999;5.9;;;;;;;15.45;77.80859;95540.72;;;;
2021/08/11 02:45:01;;;;;;;8.199999;5.9;;;;;;;15.45;77.80859;95540.72;;;;
2021/08/11 02:46:05;;;;;;;8.199999;5.9;;;;;;;15.45;77.80859;95540.72;;;;
2021/08/11 02:47:10;;;;;;;8.199999;5.9;;;;;;;15.45;77.80859;95540.72;;;;
2021/08/11 02:48:11;;;;;;;8.199999;5.9;;;;;;;15.45;77.80859;95540.72;;;;
2021/08/11 02:49:13;;;;;;;8.199999;5.9;;;;;;;15.45;77.80859;95540.72;;;;
2021/08/11 02:50:21;;;;;;;8.199999;5.9;;;;;;;15.45;77.80859;95540.72;;;;
2021/08/11 02:51:22;;;;;;;8.199999;5.9;;;;;;;15.45;77.80859;95540.72;;;;
2021/08/11 02:52:26;;;;;;;8.199999;5.9;;;;;;;15.45;77.80859;95540.72;;;;
2021/08/11 02:53:28;;;;;;;8.199999;5.9;;;;;;;15.45;77.80859;95540.72;;;;
2021/08/11 02:54:30;;;;;;;6.3;5.35;;;;;;;15.36;78.29785;95537.36;;;;
2021/08/11 02:55:32;;;;;;;6.3;5.35;;;;;;;15.36;78.29785;95537.36;;;;
2021/08/11 02:56:36;;;;;;;6.3;5.35;;;;;;;15.36;78.29785;95537.36;;;;
2021/08/11 02:57:39;;;;;;;6.3;5.35;;;;;;;15.36;78.29785;95537.36;;;;
2021/08/11 02:58:40;;;;;;;6.3;5.35;;;;;;;15.36;78.29785;95537.36;;;;
2021/08/11 02:59:41;;;;;;;6.3;5.35;;;;;;;15.36;78.29785;95537.36;;;;
2021/08/11 03:00:42;;;;;;;6.3;5.35;;;;;;;15.36;78.29785;95537.36;;;;
2021/08/11 03:01:42;;;;;;;6.3;5.35;;;;;;;15.36;78.29785;95537.36;;;;
2021/08/11 03:02:44;;;;;;;6.3;5.35;;;;;;;15.36;78.29785;95537.36;;;;
2021/08/11 03:03:46;;;;;;;6.3;5.35;;;;;;;15.36;78.29785;95537.36;;;;
2021/08/11 03:04:46;;;;;;;6.3;5.35;;;;;;;15.36;78.29785;95537.36;;;;
2021/08/11 03:05:47;;;;;;;6.55;5.7;;;;;;;15.19;78.9502;95550.67;;;;
2021/08/11 03:06:48;;;;;;;6.55;5.7;;;;;;;15.19;78.9502;95550.67;;;;
2021/08/11 03:07:49;;;;;;;6.55;5.7;;;;;;;15.19;78.9502;95550.67;;;;
2021/08/11 03:08:50;;;;;;;6.55;5.7;;;;;;;15.19;78.9502;95550.67;;;;
2021/08/11 03:09:52;;;;;;;6.55;5.7;;;;;;;15.19;78.9502;95550.67;;;;
2021/08/11 03:10:52;;;;;;;6.55;5.7;;;;;;;15.19;78.9502;95550.67;;;;
2021/08/11 03:11:53;;;;;;;6.55;5.7;;;;;;;15.19;78.9502;95550.67;;;;
2021/08/11 03:12:54;;;;;;;6.55;5.7;;;;;;;15.19;78.9502;95550.67;;;;
2021/08/11 03:13:56;;;;;;;6.55;5.7;;;;;;;15.19;78.9502;95550.67;;;;
2021/08/11 03:14:56;;;;;;;6.55;5.7;;;;;;;15.19;78.9502;95550.67;;;;
2021/08/11 03:15:58;;;;;;;8.200001;5.65;;;;;;;15.17;79.60547;95546.44;;;;
2021/08/11 03:16:58;;;;;;;8.200001;5.65;;;;;;;15.17;79.60547;95546.44;;;;
2021/08/11 03:17:59;;;;;;;8.200001;5.65;;;;;;;15.17;79.60547;95546.44;;;;
2021/08/11 03:19:00;;;;;;;8.200001;5.65;;;;;;;15.17;79.60547;95546.44;;;;
2021/08/11 03:20:00;;;;;;;8.200001;5.65;;;;;;;15.17;79.60547;95546.44;;;;
2021/08/11 03:21:01;;;;;;;8.200001;5.65;;;;;;;15.17;79.60547;95546.44;;;;
2021/08/11 03:22:02;;;;;;;8.200001;5.65;;;;;;;15.17;79.60547;95546.44;;;;
2021/08/11 03:23:03;;;;;;;8.200001;5.65;;;;;;;15.17;79.60547;95546.44;;;;
2021/08/11 03:24:04;;;;;;;8.200001;5.65;;;;;;;15.17;79.60547;95546.44;;;;
2021/08/11 03:25:05;;;;;;;8.200001;5.65;;;;;;;15.17;79.60547;95546.44;;;;
2021/08/11 03:26:06;;;;;;;8.200001;5.65;;;;;;;15.17;79.60547;95546.44;;;;
2021/08/11 03:27:07;;;;;;;7.2;5.65;;;;;;;15.28;79.98047;95539.18;;;;
2021/08/11 03:28:08;;;;;;;7.2;5.65;;;;;;;15.28;79.98047;95539.18;;;;
2021/08/11 03:29:09;;;;;;;7.2;5.65;;;;;;;15.28;79.98047;95539.18;;;;
2021/08/11 03:30:10;;;;;;;7.2;5.65;;;;;;;15.28;79.98047;95539.18;;;;
2021/08/11 03:31:11;;;;;;;7.2;5.65;;;;;;;15.28;79.98047;95539.18;;;;
2021/08/11 03:32:12;;;;;;;7.2;5.65;;;;;;;15.28;79.98047;95539.18;;;;
2021/08/11 03:33:12;;;;;;;7.2;5.65;;;;;;;15.28;79.98047;95539.18;;;;
2021/08/11 03:34:13;;;;;;;7.2;5.65;;;;;;;15.28;79.98047;95539.18;;;;
2021/08/11 03:35:13;;;;;;;7.2;5.65;;;;;;;15.28;79.98047;95539.18;;;;
2021/08/11 03:36:14;;;;;;;7.2;5.65;;;;;;;15.28;79.98047;95539.18;;;;
2021/08/11 03:37:16;;;;;;;6.4;5.649999;;;;;;;15.32;80.34473;95533.92;;;;
2021/08/11 03:38:17;;;;;;;6.4;5.649999;;;;;;;15.32;80.34473;95533.92;;;;
2021/08/11 03:39:17;;;;;;;6.4;5.649999;;;;;;;15.32;80.34473;95533.92;;;;
2021/08/11 03:40:18;;;;;;;6.4;5.649999;;;;;;;15.32;80.34473;95533.92;;;;
2021/08/11 03:41:19;;;;;;;6.4;5.649999;;;;;;;15.32;80.34473;95533.92;;;;
2021/08/11 03:42:19;;;;;;;6.4;5.649999;;;;;;;15.32;80.34473;95533.92;;;;
2021/08/11 03:43:20;;;;;;;6.4;5.649999;;;;;;;15.32;80.34473;95533.92;;;;
2021/08/11 03:44:20;;;;;;;6.4;5.649999;;;;;;;15.32;80.34473;95533.92;;;;
2021/08/11 03:45:21;;;;;;;6.4;5.649999;;;;;;;15.32;80.34473;95533.92;;;;
2021/08/11 03:46:22;;;;;;;6.4;5.649999;;;;;;;15.32;80.34473;95533.92;;;;
2021/08/11 03:47:23;;;;;;;6.4;5.649999;;;;;;;15.32;80.34473;95533.92;;;;
2021/08/11 03:48:23;;;;;;;6.4;5.649999;;;;;;;15.32;80.34473;95533.92;;;;
2021/08/11 03:49:24;;;;;;;6.4;5.649999;;;;;;;15.32;80.34473;95533.92;;;;
2021/08/11 03:50:25;;;;;;;6.4;5.649999;;;;;;;15.32;80.34473;95533.92;;;;
2021/08/11 03:51:25;;;;;;;6.4;5.649999;;;;;;;15.32;80.34473;95533.92;;;;
2021/08/11 03:52:26;;;;;;;6.4;5.649999;;;;;;;15.32;80.34473;95533.92;;;;
2021/08/11 03:53:26;;;;;;;6.4;5.649999;;;;;;;15.32;80.34473;95533.92;;;;
2021/08/11 03:54:27;;;;;;;6.4;5.649999;;;;;;;15.32;80.34473;95533.92;;;;
2021/08/11 03:55:31;;;;;;;6.4;5.649999;;;;;;;15.32;80.34473;95533.92;;;;
2021/08/11 03:56:31;;;;;;;6.4;5.649999;;;;;;;15.32;80.34473;95533.92;;;;
2021/08/11 03:57:32;;;;;;;6.4;5.649999;;;;;;;15.32;80.34473;95533.92;;;;
2021/08/11 03:58:32;;;;;;;8.05;5.749999;;;;;;;15.13;81.04297;95538.5;;;;
2021/08/11 03:59:33;;;;;;;8.05;5.749999;;;;;;;15.13;81.04297;95538.5;;;;
2021/08/11 04:00:33;;;;;;;8.05;5.749999;;;;;;;15.13;81.04297;95538.5;;;;
2021/08/11 04:01:34;;;;;;;8.05;5.749999;;;;;;;15.13;81.04297;95538.5;;;;
2021/08/11 04:02:35;;;;;;;8.05;5.749999;;;;;;;15.13;81.04297;95538.5;;;;
2021/08/11 04:03:35;;;;;;;8.05;5.749999;;;;;;;15.13;81.04297;95538.5;;;;
2021/08/11 04:04:37;;;;;;;8.05;5.749999;;;;;;;15.13;81.04297;95538.5;;;;
2021/08/11 04:05:37;;;;;;;8.05;5.749999;;;;;;;15.13;81.04297;95538.5;;;;
2021/08/11 04:06:38;;;;;;;8.05;5.749999;;;;;;;15.13;81.04297;95538.5;;;;
2021/08/11 04:07:38;;;;;;;8.05;5.749999;;;;;;;15.13;81.04297;95538.5;;;;
2021/08/11 04:08:39;;;;;;;8.05;5.749999;;;;;;;15.13;81.04297;95538.5;;;;
2021/08/11 04:09:39;;;;;;;6.499999;5.65;;;;;;;14.88;81.52637;95534.17;;;;
2021/08/11 04:10:45;;;;;;;6.499999;5.65;;;;;;;14.88;81.52637;95534.17;;;;
2021/08/11 04:11:45;;;;;;;6.499999;5.65;;;;;;;14.88;81.52637;95534.17;;;;
2021/08/11 04:12:46;;;;;;;6.499999;5.65;;;;;;;14.88;81.52637;95534.17;;;;
2021/08/11 04:13:46;;;;;;;6.499999;5.65;;;;;;;14.88;81.52637;95534.17;;;;
2021/08/11 04:14:47;;;;;;;6.499999;5.65;;;;;;;14.88;81.52637;95534.17;;;;
2021/08/11 04:15:48;;;;;;;6.499999;5.65;;;;;;;14.88;81.52637;95534.17;;;;
2021/08/11 04:16:48;;;;;;;6.499999;5.65;;;;;;;14.88;81.52637;95534.17;;;;
2021/08/11 04:17:49;;;;;;;6.499999;5.65;;;;;;;14.88;81.52637;95534.17;;;;
2021/08/11 04:18:49;;;;;;;6.499999;5.65;;;;;;;14.88;81.52637;95534.17;;;;
2021/08/11 04:19:50;;;;;;;6.95;6.250001;;;;;;;14.71;82.21582;95546.22;;;;
2021/08/11 04:20:50;;;;;;;6.95;6.250001;;;;;;;14.71;82.21582;95546.22;;;;
2021/08/11 04:21:51;;;;;;;6.95;6.250001;;;;;;;14.71;82.21582;95546.22;;;;
2021/08/11 04:22:51;;;;;;;6.95;6.250001;;;;;;;14.71;82.21582;95546.22;;;;
2021/08/11 04:23:52;;;;;;;6.95;6.250001;;;;;;;14.71;82.21582;95546.22;;;;
2021/08/11 04:24:52;;;;;;;6.95;6.250001;;;;;;;14.71;82.21582;95546.22;;;;
2021/08/11 04:25:53;;;;;;;6.95;6.250001;;;;;;;14.71;82.21582;95546.22;;;;
2021/08/11 04:26:54;;;;;;;6.95;6.250001;;;;;;;14.71;82.21582;95546.22;;;;
2021/08/11 04:27:54;;;;;;;6.95;6.250001;;;;;;;14.71;82.21582;95546.22;;;;
2021/08/11 04:28:55;;;;;;;6.95;6.250001;;;;;;;14.71;82.21582;95546.22;;;;
2021/08/11 04:29:55;;;;;;;6.95;6.250001;;;;;;;14.71;82.21582;95546.22;;;;
2021/08/11 04:30:55;;;;;;;7.5;6.700001;;;;;;;14.7;82.65723;95558.98;;;;
2021/08/11 04:31:56;;;;;;;7.5;6.700001;;;;;;;14.7;82.65723;95558.98;;;;
2021/08/11 04:32:57;;;;;;;7.5;6.700001;;;;;;;14.7;82.65723;95558.98;;;;
2021/08/11 04:33:57;;;;;;;7.5;6.700001;;;;;;;14.7;82.65723;95558.98;;;;
2021/08/11 04:34:58;;;;;;;7.5;6.700001;;;;;;;14.7;82.65723;95558.98;;;;
2021/08/11 04:35:58;;;;;;;7.5;6.700001;;;;;;;14.7;82.65723;95558.98;;;;
2021/08/11 04:36:59;;;;;;;7.5;6.700001;;;;;;;14.7;82.65723;95558.98;;;;
2021/08/11 04:37:59;;;;;;;7.5;6.700001;;;;;;;14.7;82.65723;95558.98;;;;
2021/08/11 04:39:00;;;;;;;7.5;6.700001;;;;;;;14.7;82.65723;95558.98;;;;
2021/08/11 04:40:00;;;;;;;7.5;6.700001;;;;;;;14.7;82.65723;95558.98;;;;
2021/08/11 04:41:02;;;;;;;7.149999;6.45;;;;;;;14.75;83.16211;95558.09;;;;
2021/08/11 04:42:02;;;;;;;7.149999;6.45;;;;;;;14.75;83.16211;95558.09;;;;
2021/08/11 04:43:03;;;;;;;7.149999;6.45;;;;;;;14.75;83.16211;95558.09;;;;
2021/08/11 04:44:06;;;;;;;7.149999;6.45;;;;;;;14.75;83.16211;95558.09;;;;
2021/08/11 04:45:07;;;;;;;7.149999;6.45;;;;;;;14.75;83.16211;95558.09;;;;
2021/08/11 04:46:08;;;;;;;7.149999;6.45;;;;;;;14.75;83.16211;95558.09;;;;
2021/08/11 04:47:09;;;;;;;7.149999;6.45;;;;;;;14.75;83.16211;95558.09;;;;
2021/08/11 04:48:09;;;;;;;7.149999;6.45;;;;;;;14.75;83.16211;95558.09;;;;
2021/08/11 04:49:10;;;;;;;7.149999;6.45;;;;;;;14.75;83.16211;95558.09;;;;
2021/08/11 04:50:10;;;;;;;7.149999;6.45;;;;;;;14.75;83.16211;95558.09;;;;
2021/08/11 04:51:11;;;;;;;7.149999;6.45;;;;;;;14.75;83.16211;95558.09;;;;
2021/08/11 04:52:12;;;;;;;6.95;6.249999;;;;;;;14.97;83.46191;95554.91;;;;
2021/08/11 04:53:12;;;;;;;6.95;6.249999;;;;;;;14.97;83.46191;95554.91;;;;
2021/08/11 04:54:13;;;;;;;6.95;6.249999;;;;;;;14.97;83.46191;95554.91;;;;
2021/08/11 04:55:13;;;;;;;6.95;6.249999;;;;;;;14.97;83.46191;95554.91;;;;
2021/08/11 04:56:14;;;;;;;6.95;6.249999;;;;;;;14.97;83.46191;95554.91;;;;
2021/08/11 04:57:14;;;;;;;6.95;6.249999;;;;;;;14.97;83.46191;95554.91;;;;
2021/08/11 04:58:15;;;;;;;6.95;6.249999;;;;;;;14.97;83.46191;95554.91;;;;
2021/08/11 04:59:15;;;;;;;6.95;6.249999;;;;;;;14.97;83.46191;95554.91;;;;
2021/08/11 05:00:16;;;;;;;6.95;6.249999;;;;;;;14.97;83.46191;95554.91;;;;
2021/08/11 05:01:17;;;;;;;6.95;6.249999;;;;;;;14.97;83.46191;95554.91;;;;
2021/08/11 05:02:18;;;;;;;8.300001;6.400001;;;;;;;15.13;83.59961;95557.53;;;;
2021/08/11 05:03:18;;;;;;;8.300001;6.400001;;;;;;;15.13;83.59961;95557.53;;;;
2021/08/11 05:04:19;;;;;;;8.300001;6.400001;;;;;;;15.13;83.59961;95557.53;;;;
2021/08/11 05:05:19;;;;;;;8.300001;6.400001;;;;;;;15.13;83.59961;95557.53;;;;
2021/08/11 05:06:20;;;;;;;8.300001;6.400001;;;;;;;15.13;83.59961;95557.53;;;;
2021/08/11 05:07:21;;;;;;;8.300001;6.400001;;;;;;;15.13;83.59961;95557.53;;;;
2021/08/11 05:08:21;;;;;;;8.300001;6.400001;;;;;;;15.13;83.59961;95557.53;;;;
2021/08/11 05:09:22;;;;;;;8.300001;6.400001;;;;;;;15.13;83.59961;95557.53;;;;
2021/08/11 05:10:22;;;;;;;8.300001;6.400001;;;;;;;15.13;83.59961;95557.53;;;;
2021/08/11 05:11:23;;;;;;;8.300001;6.400001;;;;;;;15.13;83.59961;95557.53;;;;
2021/08/11 05:12:24;;;;;;;8.300001;6.400001;;;;;;;15.13;83.59961;95557.53;;;;
2021/08/11 05:13:24;;;;;;;8.5;6.000001;;;;;;;15.27;83.86328;95557.39;;;;
2021/08/11 05:14:25;;;;;;;8.5;6.000001;;;;;;;15.27;83.86328;95557.39;;;;
2021/08/11 05:15:26;;;;;;;8.5;6.000001;;;;;;;15.27;83.86328;95557.39;;;;
2021/08/11 05:16:27;;;;;;;8.5;6.000001;;;;;;;15.27;83.86328;95557.39;;;;
2021/08/11 05:17:27;;;;;;;8.5;6.000001;;;;;;;15.27;83.86328;95557.39;;;;
2021/08/11 05:18:28;;;;;;;8.5;6.000001;;;;;;;15.27;83.86328;95557.39;;;;
2021/08/11 05:19:28;;;;;;;8.5;6.000001;;;;;;;15.27;83.86328;95557.39;;;;
2021/08/11 05:20:28;;;;;;;8.5;6.000001;;;;;;;15.27;83.86328;95557.39;;;;
2021/08/11 05:21:29;;;;;;;8.5;6.000001;;;;;;;15.27;83.86328;95557.39;;;;
2021/08/11 05:22:30;;;;;;;8.5;6.000001;;;;;;;15.27;83.86328;95557.39;;;;
2021/08/11 05:23:30;;;;;;;8.5;6.000001;;;;;;;15.27;83.86328;95557.39;;;;
2021/08/11 05:24:31;;;;;;;6.1;5.5;;;;;;;15.52;83.99609;95563.23;;;;
2021/08/11 05:25:31;;;;;;;6.1;5.5;;;;;;;15.52;83.99609;95563.23;;;;
2021/08/11 05:26:32;;;;;;;6.1;5.5;;;;;;;15.52;83.99609;95563.23;;;;
2021/08/11 05:27:32;;;;;;;6.1;5.5;;;;;;;15.52;83.99609;95563.23;;;;
2021/08/11 05:28:33;;;;;;;6.1;5.5;;;;;;;15.52;83.99609;95563.23;;;;
2021/08/11 05:29:33;;;;;;;6.1;5.5;;;;;;;15.52;83.99609;95563.23;;;;
2021/08/11 05:30:34;;;;;;;6.1;5.5;;;;;;;15.52;83.99609;95563.23;;;;
2021/08/11 05:31:36;;;;;;;6.1;5.5;;;;;;;15.52;83.99609;95563.23;;;;
2021/08/11 05:32:36;;;;;;;6.1;5.5;;;;;;;15.52;83.99609;95563.23;;;;
2021/08/11 05:33:37;;;;;;;6.1;5.5;;;;;;;15.52;83.99609;95563.23;;;;
2021/08/11 05:34:37;;;;;;;6.6;5.700001;;;;;;;15.91;83.80176;95553.73;;;;
2021/08/11 05:35:38;;;;;;;6.6;5.700001;;;;;;;15.91;83.80176;95553.73;;;;
2021/08/11 05:36:38;;;;;;;6.6;5.700001;;;;;;;15.91;83.80176;95553.73;;;;
2021/08/11 05:37:39;;;;;;;6.6;5.700001;;;;;;;15.91;83.80176;95553.73;;;;